Time;durP1;ratioP1;P1;durP2;ratioP2;P2;SDS_P1;SDS_P2;PMS_P1;PMS_P2;Temp;Humidity;BMP_temperature;BMP_pressure;BME280_temperature;BME280_humidity;BME280_pressure;Samples;Min_cycle;Max_cycle;Signal;HPM_P1;HPM_P2
2022/02/14 00:01:05;;;;;;;32.93;18.43;;;;;;;;;;754160;183;643124;-91
2022/02/14 00:03:30;;;;;;;34.00;20.73;;;;;;;;;;750874;177;644407;-88
2022/02/14 00:05:57;;;;;;;34.88;20.35;;;;;;;;;;755224;180;916867;-91
2022/02/14 00:08:22;;;;;;;29.37;18.13;;;;;;;;;;761019;181;628285;-88
2022/02/14 00:10:48;;;;;;;32.80;18.40;;;;;;;;;;755306;186;645123;-88
2022/02/14 00:13:14;;;;;;;31.07;19.30;;;;;;;;;;753451;186;639292;-88
2022/02/14 00:15:41;;;;;;;30.80;18.10;;;;;;;;;;754709;187;640597;-86
2022/02/14 00:18:05;;;;;;;28.83;17.30;;;;;;;;;;747303;184;660377;-90
2022/02/14 00:20:31;;;;;;;28.40;18.23;;;;;;;;;;751956;180;651341;-87
2022/02/14 00:22:57;;;;;;;25.13;17.90;;;;;;;;;;745284;186;632081;-87
2022/02/14 00:25:23;;;;;;;29.70;16.93;;;;;;;;;;744522;186;747358;-87
2022/02/14 00:27:49;;;;;;;33.33;18.45;;;;;;;;;;739457;187;628463;-87
2022/02/14 00:30:15;;;;;;;22.47;16.00;;;;;;;;;;736101;189;631381;-87
2022/02/14 00:32:41;;;;;;;32.67;18.77;;;;;;;;;;727518;195;658903;-88
2022/02/14 00:35:07;;;;;;;25.50;17.30;;;;;;;;;;719263;196;648454;-89
2022/02/14 00:37:32;;;;;;;26.20;16.30;;;;;;;;;;747676;184;638789;-89
2022/02/14 00:39:59;;;;;;;29.00;18.20;;;;;;;;;;769636;181;622540;-88
2022/02/14 00:42:25;;;;;;;25.33;14.48;;;;;;;;;;737531;184;1023660;-87
2022/02/14 00:44:51;;;;;;;27.67;16.60;;;;;;;;;;733129;183;633348;-88
2022/02/14 00:47:17;;;;;;;26.73;15.60;;;;;;;;;;721333;195;629761;-87
2022/02/14 00:49:43;;;;;;;28.63;15.40;;;;;;;;;;747981;183;622543;-88
2022/02/14 00:58:16;;;;;;;24.60;14.50;;;;;;;;;;756188;179;628007;31
2022/02/14 01:00:41;;;;;;;25.17;14.87;;;;;;;;;;777037;179;626645;-89
2022/02/14 01:03:08;;;;;;;25.30;15.07;;;;;;;;;;743893;179;632448;-86
2022/02/14 01:05:34;;;;;;;26.70;16.43;;;;;;;;;;730898;182;636772;-87
2022/02/14 01:08:00;;;;;;;26.60;16.00;;;;;;;;;;766683;182;641517;-87
2022/02/14 01:10:26;;;;;;;26.10;16.30;;;;;;;;;;774832;178;626894;-85
2022/02/14 01:15:52;;;;;;;24.00;15.40;;;;;;;;;;748271;187;672320;31
2022/02/14 01:18:18;;;;;;;31.83;18.13;;;;;;;;;;743613;184;782681;-90
2022/02/14 01:20:44;;;;;;;29.67;15.40;;;;;;;;;;756824;179;831551;-87
2022/02/14 01:23:10;;;;;;;26.73;16.17;;;;;;;;;;746311;177;628356;-90
2022/02/14 01:28:32;;;;;;;25.17;15.90;;;;;;;;;;758960;187;26554;-88
2022/02/14 01:30:58;;;;;;;26.03;17.50;;;;;;;;;;760376;183;682857;-88
2022/02/14 01:33:24;;;;;;;28.10;17.97;;;;;;;;;;729785;183;645642;-87
2022/02/14 01:35:50;;;;;;;22.90;14.70;;;;;;;;;;723550;194;706151;-88
2022/02/14 01:38:16;;;;;;;26.37;15.67;;;;;;;;;;729564;176;637589;-88
2022/02/14 01:40:42;;;;;;;27.60;16.60;;;;;;;;;;725003;188;856816;-90
2022/02/14 01:46:00;;;;;;;29.20;16.43;;;;;;;;;;761034;180;631411;-87
2022/02/14 01:48:26;;;;;;;25.37;14.60;;;;;;;;;;742491;188;639530;-87
2022/02/14 01:50:53;;;;;;;24.27;15.93;;;;;;;;;;733585;189;632091;-87
2022/02/14 01:56:11;;;;;;;29.13;17.03;;;;;;;;;;764279;177;643157;-87
2022/02/14 01:58:37;;;;;;;28.43;16.60;;;;;;;;;;744928;184;641453;-86
2022/02/14 02:03:29;;;;;;;29.07;16.87;;;;;;;;;;745490;178;646996;-86
2022/02/14 02:05:55;;;;;;;26.95;16.00;;;;;;;;;;731913;188;912561;-86
2022/02/14 02:08:20;;;;;;;27.70;17.60;;;;;;;;;;748714;186;633826;-86
2022/02/14 02:10:46;;;;;;;27.83;16.10;;;;;;;;;;749049;178;884549;-88
2022/02/14 02:13:12;;;;;;;26.50;16.17;;;;;;;;;;750258;182;648222;-86
2022/02/14 02:15:38;;;;;;;23.63;16.57;;;;;;;;;;743890;188;653006;-86
2022/02/14 02:18:06;;;;;;;32.10;17.00;;;;;;;;;;760721;181;640892;-87
2022/02/14 02:20:30;;;;;;;26.60;16.17;;;;;;;;;;754140;184;620727;-88
2022/02/14 02:22:56;;;;;;;24.60;16.12;;;;;;;;;;751036;186;670491;-86
2022/02/14 02:25:22;;;;;;;25.97;16.87;;;;;;;;;;754733;185;652280;-86
2022/02/14 02:27:48;;;;;;;30.87;16.90;;;;;;;;;;732601;188;637378;-86
2022/02/14 02:30:14;;;;;;;26.00;17.00;;;;;;;;;;749542;183;657750;-87
2022/02/14 02:32:40;;;;;;;25.50;15.83;;;;;;;;;;758079;184;735709;-88
2022/02/14 02:35:07;;;;;;;25.23;18.00;;;;;;;;;;737281;187;641756;-87
2022/02/14 02:37:33;;;;;;;24.57;15.80;;;;;;;;;;747976;181;626713;-88
2022/02/14 02:39:59;;;;;;;25.57;15.63;;;;;;;;;;750951;187;631842;-88
2022/02/14 02:42:25;;;;;;;26.30;14.83;;;;;;;;;;732791;191;854340;-87
2022/02/14 02:44:51;;;;;;;24.50;14.23;;;;;;;;;;723418;192;652676;-89
2022/02/14 02:47:17;;;;;;;22.33;14.37;;;;;;;;;;725470;192;639090;-89
2022/02/14 02:49:43;;;;;;;27.90;14.80;;;;;;;;;;721643;194;654922;-87
2022/02/14 02:52:08;;;;;;;26.63;16.30;;;;;;;;;;758459;178;632541;-88
2022/02/14 02:54:34;;;;;;;22.90;15.40;;;;;;;;;;744202;184;933210;-88
2022/02/14 02:57:00;;;;;;;31.60;16.80;;;;;;;;;;757186;183;661623;-88
2022/02/14 02:59:26;;;;;;;27.17;15.50;;;;;;;;;;741485;187;629154;-88
2022/02/14 03:01:52;;;;;;;20.20;15.88;;;;;;;;;;751361;186;884295;-89
2022/02/14 03:04:18;;;;;;;20.37;15.13;;;;;;;;;;764437;180;643286;-87
2022/02/14 03:06:44;;;;;;;25.87;16.67;;;;;;;;;;735748;188;619313;-86
2022/02/14 03:09:09;;;;;;;23.63;15.60;;;;;;;;;;733227;191;615648;-87
2022/02/14 03:11:35;;;;;;;28.03;16.60;;;;;;;;;;742885;183;634324;-88
2022/02/14 03:14:01;;;;;;;24.30;15.10;;;;;;;;;;752602;185;627867;-90
2022/02/14 03:16:27;;;;;;;24.13;15.37;;;;;;;;;;752843;184;902729;-89
2022/02/14 03:18:53;;;;;;;26.97;16.63;;;;;;;;;;735747;181;912021;-86
2022/02/14 03:21:19;;;;;;;25.95;14.35;;;;;;;;;;757159;180;635181;-88
2022/02/14 03:23:44;;;;;;;27.10;16.30;;;;;;;;;;767718;182;619436;-86
2022/02/14 03:26:10;;;;;;;27.17;15.60;;;;;;;;;;748771;179;640212;-86
2022/02/14 03:28:36;;;;;;;24.47;17.70;;;;;;;;;;739981;183;642077;-87
2022/02/14 03:31:02;;;;;;;26.70;16.27;;;;;;;;;;722071;191;628037;-90
2022/02/14 03:33:28;;;;;;;20.33;14.70;;;;;;;;;;723384;191;632425;-89
2022/02/14 03:35:54;;;;;;;29.13;17.70;;;;;;;;;;752493;184;636900;-87
2022/02/14 03:38:20;;;;;;;29.30;15.40;;;;;;;;;;754792;181;638778;-87
2022/02/14 03:40:45;;;;;;;30.67;16.97;;;;;;;;;;730867;187;625383;-87
2022/02/14 03:43:11;;;;;;;26.90;17.10;;;;;;;;;;736779;187;625040;-87
2022/02/14 03:45:37;;;;;;;22.77;15.90;;;;;;;;;;744039;188;637210;-87
2022/02/14 03:48:03;;;;;;;23.87;16.40;;;;;;;;;;740927;182;815105;-88
2022/02/14 03:50:29;;;;;;;20.10;14.10;;;;;;;;;;758262;180;653295;-87
2022/02/14 03:52:55;;;;;;;26.40;16.50;;;;;;;;;;763416;182;623751;-87
2022/02/14 03:55:21;;;;;;;25.60;15.80;;;;;;;;;;758222;183;833457;-86
2022/02/14 03:57:49;;;;;;;24.60;15.57;;;;;;;;;;758684;184;715708;-87
2022/02/14 04:00:13;;;;;;;28.87;17.87;;;;;;;;;;762992;183;699792;-87
2022/02/14 04:02:39;;;;;;;23.70;16.57;;;;;;;;;;764622;183;625159;-88
2022/02/14 04:05:05;;;;;;;24.17;15.50;;;;;;;;;;764572;183;614375;-90
2022/02/14 04:07:31;;;;;;;27.20;17.37;;;;;;;;;;765440;181;635948;-89
2022/02/14 04:09:57;;;;;;;25.13;16.60;;;;;;;;;;768126;181;640650;-90
2022/02/14 04:12:23;;;;;;;28.50;17.50;;;;;;;;;;765191;179;943265;-90
2022/02/14 04:14:49;;;;;;;28.03;16.17;;;;;;;;;;769561;180;723922;-87
2022/02/14 04:17:15;;;;;;;27.30;17.23;;;;;;;;;;762926;180;628285;-87
2022/02/14 04:19:41;;;;;;;32.10;18.40;;;;;;;;;;771538;179;628334;-88
2022/02/14 04:22:07;;;;;;;28.90;17.30;;;;;;;;;;765529;181;643751;-89
2022/02/14 04:24:33;;;;;;;30.43;17.80;;;;;;;;;;759697;183;683497;-90
2022/02/14 04:26:59;;;;;;;34.37;18.10;;;;;;;;;;760188;180;641121;-88
2022/02/14 04:29:25;;;;;;;27.73;17.87;;;;;;;;;;752642;186;628949;-88
2022/02/14 04:31:50;;;;;;;31.83;17.10;;;;;;;;;;755384;181;638768;-90
2022/02/14 04:34:18;;;;;;;27.07;17.13;;;;;;;;;;750188;187;614155;-89
2022/02/14 04:36:42;;;;;;;24.37;16.17;;;;;;;;;;736115;189;630973;-88
2022/02/14 04:39:08;;;;;;;23.77;15.60;;;;;;;;;;737676;188;663633;-89
2022/02/14 04:41:34;;;;;;;27.53;17.20;;;;;;;;;;736990;187;631496;-88
2022/02/14 04:44:00;;;;;;;23.70;14.70;;;;;;;;;;748844;185;644424;-88
2022/02/14 04:46:26;;;;;;;24.87;14.90;;;;;;;;;;754222;182;628283;-87
2022/02/14 04:48:52;;;;;;;26.03;15.83;;;;;;;;;;746091;184;629774;-87
2022/02/14 04:51:18;;;;;;;25.73;15.37;;;;;;;;;;733449;188;654248;-87
2022/02/14 04:56:36;;;;;;;26.23;16.70;;;;;;;;;;721880;177;643791;-87
2022/02/14 04:59:02;;;;;;;23.30;14.97;;;;;;;;;;761171;181;630976;-87
2022/02/14 05:01:28;;;;;;;26.00;16.20;;;;;;;;;;769640;177;634848;-89
2022/02/14 05:03:54;;;;;;;29.53;17.00;;;;;;;;;;764420;178;634006;-89
2022/02/14 05:06:21;;;;;;;28.57;17.83;;;;;;;;;;730187;181;685773;-86
2022/02/14 05:08:47;;;;;;;27.73;17.03;;;;;;;;;;757270;178;642755;-87
2022/02/14 05:11:17;;;;;;;26.27;17.20;;;;;;;;;;766902;180;644555;31
2022/02/14 05:13:45;;;;;;;24.57;16.23;;;;;;;;;;737089;188;630885;-88
2022/02/14 05:16:09;;;;;;;32.15;18.15;;;;;;;;;;737508;189;640965;-89
2022/02/14 05:18:34;;;;;;;26.20;16.00;;;;;;;;;;750918;180;631885;-87
2022/02/14 05:21:00;;;;;;;27.47;16.70;;;;;;;;;;734212;182;632140;-90
2022/02/14 05:29:29;;;;;;;27.33;16.77;;;;;;;;;;761165;178;732971;-86
2022/02/14 05:31:57;;;;;;;31.97;17.53;;;;;;;;;;768067;177;632090;-88
2022/02/14 05:37:13;;;;;;;24.70;14.60;;;;;;;;;;756461;177;26558;-89
2022/02/14 05:42:32;;;;;;;26.43;14.87;;;;;;;;;;761686;177;26524;-88
2022/02/14 05:47:52;;;;;;;20.97;14.30;;;;;;;;;;734888;181;630727;-87
2022/02/14 05:50:18;;;;;;;22.53;13.40;;;;;;;;;;751609;181;657863;-87
2022/02/14 05:52:44;;;;;;;28.07;14.80;;;;;;;;;;745263;185;631491;-88
2022/02/14 05:58:03;;;;;;;21.43;12.70;;;;;;;;;;764604;183;631065;-86
2022/02/14 06:00:29;;;;;;;31.90;13.27;;;;;;;;;;776851;177;710596;-87
2022/02/14 06:02:55;;;;;;;20.47;13.60;;;;;;;;;;759512;182;634578;-87
2022/02/14 06:05:20;;;;;;;28.07;13.43;;;;;;;;;;767897;177;618659;-87
2022/02/14 06:10:39;;;;;;;18.93;13.37;;;;;;;;;;762630;178;633673;-87
2022/02/14 06:13:05;;;;;;;23.80;12.37;;;;;;;;;;745081;177;635565;-88
2022/02/14 06:15:31;;;;;;;22.50;13.90;;;;;;;;;;746250;185;635367;-87
2022/02/14 06:17:56;;;;;;;21.13;14.10;;;;;;;;;;762309;184;619547;-87
2022/02/14 06:20:32;;;;;;;;;;;;;;;;;;;;;
2022/02/14 06:22:48;;;;;;;22.57;13.50;;;;;;;;;;750945;180;627891;-89
2022/02/14 06:25:14;;;;;;;26.90;12.20;;;;;;;;;;756410;182;632475;-87
2022/02/14 06:27:40;;;;;;;27.70;13.98;;;;;;;;;;743025;188;714420;-87
2022/02/14 06:30:06;;;;;;;27.23;13.47;;;;;;;;;;749300;182;682925;-88
2022/02/14 06:32:32;;;;;;;24.80;13.97;;;;;;;;;;732514;185;636917;-86
2022/02/14 06:34:58;;;;;;;28.63;13.33;;;;;;;;;;754623;184;634437;-87
2022/02/14 06:37:24;;;;;;;21.30;13.47;;;;;;;;;;762531;177;631576;-87
2022/02/14 06:39:49;;;;;;;20.40;12.43;;;;;;;;;;752756;181;629843;-87
2022/02/14 06:45:09;;;;;;;25.90;13.85;;;;;;;;;;750723;180;639503;-87
2022/02/14 06:47:34;;;;;;;23.40;14.03;;;;;;;;;;741447;184;722880;-88
2022/02/14 06:50:00;;;;;;;20.87;12.13;;;;;;;;;;747741;181;768426;-87
2022/02/14 06:52:26;;;;;;;25.37;13.50;;;;;;;;;;748381;187;641992;-87
2022/02/14 06:54:52;;;;;;;19.90;13.50;;;;;;;;;;758099;181;631008;-87
2022/02/14 06:57:18;;;;;;;19.40;13.10;;;;;;;;;;759345;181;637030;-88
2022/02/14 06:59:44;;;;;;;23.37;14.47;;;;;;;;;;739270;184;624258;-89
2022/02/14 07:02:10;;;;;;;22.67;14.03;;;;;;;;;;773589;181;617704;-88
2022/02/14 07:04:36;;;;;;;19.13;12.73;;;;;;;;;;763554;177;628881;-89
2022/02/14 07:07:02;;;;;;;22.00;13.10;;;;;;;;;;766284;177;26572;-87
2022/02/14 07:09:28;;;;;;;29.43;13.47;;;;;;;;;;767932;183;701222;-88
2022/02/14 07:11:53;;;;;;;24.03;12.00;;;;;;;;;;764112;177;629805;-90
2022/02/14 07:14:19;;;;;;;18.90;12.97;;;;;;;;;;745210;184;737078;-90
2022/02/14 07:16:45;;;;;;;20.73;12.70;;;;;;;;;;740976;180;641162;-86
2022/02/14 07:19:11;;;;;;;20.93;13.50;;;;;;;;;;752447;184;644163;-86
2022/02/14 07:21:37;;;;;;;24.80;13.03;;;;;;;;;;741836;182;646074;-85
2022/02/14 07:24:03;;;;;;;20.60;13.00;;;;;;;;;;721391;185;647670;-88
2022/02/14 07:26:28;;;;;;;21.50;13.03;;;;;;;;;;744518;178;635232;-87
2022/02/14 07:43:26;;;;;;;16.70;11.70;;;;;;;;;;730282;178;27690;31
2022/02/14 07:45:51;;;;;;;19.07;11.37;;;;;;;;;;736148;188;642665;-86
2022/02/14 07:48:17;;;;;;;20.70;13.17;;;;;;;;;;741997;188;653375;-87
2022/02/14 07:50:42;;;;;;;21.40;12.43;;;;;;;;;;745510;188;681016;-87
2022/02/14 07:53:10;;;;;;;18.70;12.70;;;;;;;;;;730712;192;630716;-86
2022/02/14 07:55:42;;;;;;;24.33;13.13;;;;;;;;;;744369;180;609301;31
2022/02/14 08:01:11;;;;;;;18.60;12.57;;;;;;;;;;771325;178;27660;31
2022/02/14 08:03:36;;;;;;;20.30;14.33;;;;;;;;;;736151;189;643004;-86
2022/02/14 08:06:02;;;;;;;21.60;13.70;;;;;;;;;;751492;180;633403;-90
2022/02/14 08:08:30;;;;;;;20.93;12.50;;;;;;;;;;752514;179;633028;31
2022/02/14 08:10:55;;;;;;;23.87;12.17;;;;;;;;;;762655;178;647093;-86
2022/02/14 08:13:21;;;;;;;19.87;13.43;;;;;;;;;;759073;183;643139;-86
2022/02/14 08:15:48;;;;;;;21.63;13.63;;;;;;;;;;753396;183;631434;-85
2022/02/14 08:18:14;;;;;;;21.20;11.60;;;;;;;;;;748276;180;657144;-89
2022/02/14 08:20:40;;;;;;;17.80;11.33;;;;;;;;;;742491;188;644148;-87
2022/02/14 08:23:07;;;;;;;23.90;14.57;;;;;;;;;;745253;176;686450;-86
2022/02/14 08:28:24;;;;;;;20.40;12.60;;;;;;;;;;696326;178;637776;-87
2022/02/14 08:30:50;;;;;;;19.80;10.80;;;;;;;;;;746561;185;636018;-89
2022/02/14 08:39:00;;;;;;;15.17;9.47;;;;;;;;;;764594;178;28498;-90
2022/02/14 08:41:27;;;;;;;19.20;10.60;;;;;;;;;;770824;174;640114;-90
2022/02/14 08:43:52;;;;;;;17.17;11.73;;;;;;;;;;743677;178;625302;-86
2022/02/14 08:46:20;;;;;;;18.43;12.13;;;;;;;;;;744588;178;713862;-88
2022/02/14 08:51:37;;;;;;;16.97;10.93;;;;;;;;;;747136;184;625315;-89
2022/02/14 08:54:03;;;;;;;17.10;11.97;;;;;;;;;;760958;179;636839;-90
2022/02/14 08:56:29;;;;;;;16.00;11.30;;;;;;;;;;743319;181;630828;-90
2022/02/14 08:58:55;;;;;;;15.40;11.40;;;;;;;;;;733411;190;662478;-88
2022/02/14 09:01:20;;;;;;;22.70;11.90;;;;;;;;;;738720;187;682529;-90
2022/02/14 09:03:46;;;;;;;14.30;9.23;;;;;;;;;;742112;188;618913;-89
2022/02/14 09:06:13;;;;;;;16.90;10.33;;;;;;;;;;737935;179;657396;-88
2022/02/14 09:08:39;;;;;;;18.47;10.87;;;;;;;;;;733127;190;671386;-87
2022/02/14 09:11:05;;;;;;;14.73;11.40;;;;;;;;;;750779;180;637938;-87
2022/02/14 09:13:31;;;;;;;17.60;11.47;;;;;;;;;;742495;178;630729;-88
2022/02/14 09:15:56;;;;;;;16.83;10.43;;;;;;;;;;747546;181;647929;-88
2022/02/14 09:18:22;;;;;;;16.87;10.63;;;;;;;;;;759734;179;651675;-89
2022/02/14 09:20:48;;;;;;;14.80;10.90;;;;;;;;;;760361;183;627309;-88
2022/02/14 09:23:14;;;;;;;17.17;9.87;;;;;;;;;;741238;175;636698;-88
2022/02/14 09:25:40;;;;;;;24.77;10.90;;;;;;;;;;755784;177;625788;-88
2022/02/14 09:31:07;;;;;;;20.93;11.60;;;;;;;;;;709995;177;26620;31
2022/02/14 09:33:32;;;;;;;17.57;11.03;;;;;;;;;;729853;191;637697;-89
2022/02/14 09:35:57;;;;;;;21.37;12.27;;;;;;;;;;734159;186;633995;-89
2022/02/14 09:38:26;;;;;;;17.87;10.47;;;;;;;;;;753028;177;645537;-89
2022/02/14 09:40:50;;;;;;;16.00;10.53;;;;;;;;;;746911;184;633692;-89
2022/02/14 09:43:16;;;;;;;18.80;11.70;;;;;;;;;;747414;186;639260;-90
2022/02/14 09:45:42;;;;;;;15.00;10.23;;;;;;;;;;756619;186;617702;-89
2022/02/14 09:48:08;;;;;;;14.27;8.93;;;;;;;;;;751050;186;618635;-90
2022/02/14 09:50:33;;;;;;;16.23;10.63;;;;;;;;;;766192;178;637842;-86
2022/02/14 09:53:00;;;;;;;16.77;11.97;;;;;;;;;;762541;180;627814;-87
2022/02/14 09:55:25;;;;;;;14.67;10.50;;;;;;;;;;759691;183;640210;-88
2022/02/14 09:57:51;;;;;;;17.60;10.33;;;;;;;;;;770083;183;642921;-89
2022/02/14 10:00:17;;;;;;;19.10;10.90;;;;;;;;;;762095;183;689150;-90
2022/02/14 10:02:43;;;;;;;17.40;10.00;;;;;;;;;;737405;181;667736;-87
2022/02/14 10:05:09;;;;;;;14.73;9.87;;;;;;;;;;759215;176;651695;-90
2022/02/14 10:07:40;;;;;;;17.47;11.57;;;;;;;;;;756514;177;626422;-87
2022/02/14 10:10:07;;;;;;;14.10;10.43;;;;;;;;;;728370;191;824983;-88
2022/02/14 10:12:37;;;;;;;14.63;9.43;;;;;;;;;;726150;191;637328;-89
2022/02/14 10:15:03;;;;;;;15.77;9.93;;;;;;;;;;734353;190;624823;-90
2022/02/14 10:17:29;;;;;;;18.73;12.70;;;;;;;;;;756425;182;620387;-88
2022/02/14 10:19:57;;;;;;;13.97;9.20;;;;;;;;;;758619;182;641401;-86
2022/02/14 10:22:23;;;;;;;16.80;9.07;;;;;;;;;;754347;185;626876;-90
2022/02/14 10:24:49;;;;;;;15.47;10.00;;;;;;;;;;756606;181;633310;-88
2022/02/14 10:27:15;;;;;;;17.17;10.60;;;;;;;;;;754089;182;675587;-89
2022/02/14 10:29:41;;;;;;;10.97;7.10;;;;;;;;;;754271;185;660118;-89
2022/02/14 10:32:07;;;;;;;17.10;11.23;;;;;;;;;;758524;183;645627;-89
2022/02/14 10:34:37;;;;;;;15.70;10.20;;;;;;;;;;754678;181;672153;-89
2022/02/14 10:37:02;;;;;;;17.43;10.13;;;;;;;;;;755502;181;666724;-89
2022/02/14 10:39:28;;;;;;;16.40;10.17;;;;;;;;;;761739;182;636279;-89
2022/02/14 10:41:54;;;;;;;14.37;10.50;;;;;;;;;;750723;181;771977;-89
2022/02/14 10:46:52;;;;;;;14.57;9.10;;;;;;;;;;743108;187;629947;-89
2022/02/14 10:49:18;;;;;;;15.40;9.33;;;;;;;;;;754413;186;637872;-89
2022/02/14 10:51:45;;;;;;;19.10;10.57;;;;;;;;;;747109;183;639339;-90
2022/02/14 10:54:11;;;;;;;15.63;9.20;;;;;;;;;;746694;187;643964;-88
2022/02/14 10:56:37;;;;;;;19.93;11.40;;;;;;;;;;749606;186;626314;-89
2022/02/14 10:59:08;;;;;;;12.33;9.27;;;;;;;;;;744987;183;634590;-88
2022/02/14 11:01:33;;;;;;;15.80;9.73;;;;;;;;;;736137;188;641556;-86
2022/02/14 11:03:59;;;;;;;19.63;10.97;;;;;;;;;;740105;187;634285;-87
2022/02/14 11:06:24;;;;;;;18.10;11.47;;;;;;;;;;738669;189;655457;-88
2022/02/14 11:08:50;;;;;;;15.33;10.80;;;;;;;;;;742254;187;628254;-85
2022/02/14 11:11:18;;;;;;;13.35;8.18;;;;;;;;;;726296;189;830455;-87
2022/02/14 11:13:42;;;;;;;13.20;9.83;;;;;;;;;;746100;186;620957;-87
2022/02/14 11:16:09;;;;;;;14.47;9.53;;;;;;;;;;742347;186;641585;-87
2022/02/14 11:18:34;;;;;;;13.37;8.60;;;;;;;;;;741528;187;623197;-86
2022/02/14 11:21:00;;;;;;;13.33;10.33;;;;;;;;;;746167;190;630598;-87
2022/02/14 11:23:34;;;;;;;14.47;8.37;;;;;;;;;;743033;182;625194;31
2022/02/14 11:26:01;;;;;;;11.13;8.70;;;;;;;;;;720164;193;756834;-89
2022/02/14 11:28:40;;;;;;;14.90;10.00;;;;;;;;;;756514;186;638514;-87
2022/02/14 11:31:12;;;;;;;16.60;10.67;;;;;;;;;;752518;186;634029;-86
2022/02/14 11:33:40;;;;;;;12.40;8.77;;;;;;;;;;754106;187;636482;-88
2022/02/14 11:36:05;;;;;;;14.33;9.30;;;;;;;;;;752518;177;621054;-87
2022/02/14 11:38:48;;;;;;;11.80;8.03;;;;;;;;;;743092;185;631363;-89
2022/02/14 11:41:22;;;;;;;17.73;10.63;;;;;;;;;;749701;185;642713;-88
2022/02/14 11:43:48;;;;;;;14.47;9.20;;;;;;;;;;741525;188;696516;-86
2022/02/14 11:46:17;;;;;;;10.80;8.70;;;;;;;;;;742749;189;634294;-88
2022/02/14 11:48:41;;;;;;;15.00;10.30;;;;;;;;;;743747;187;628689;-89
2022/02/14 11:51:08;;;;;;;17.10;9.93;;;;;;;;;;742831;188;625465;-88
2022/02/14 11:53:36;;;;;;;16.80;9.37;;;;;;;;;;744090;188;635357;-86
2022/02/14 11:56:07;;;;;;;18.17;10.53;;;;;;;;;;747147;188;633847;-88
2022/02/14 11:58:39;;;;;;;20.30;9.47;;;;;;;;;;740307;188;646655;-89
2022/02/14 12:01:05;;;;;;;12.07;8.40;;;;;;;;;;741604;188;622279;-88
2022/02/14 12:03:31;;;;;;;15.33;8.83;;;;;;;;;;744151;188;637227;-89
2022/02/14 12:05:58;;;;;;;11.73;8.10;;;;;;;;;;748203;187;627510;-89
2022/02/14 12:08:24;;;;;;;12.27;8.20;;;;;;;;;;744881;188;627515;-89
2022/02/14 12:10:51;;;;;;;11.60;7.73;;;;;;;;;;742057;188;652319;-88
2022/02/14 12:13:17;;;;;;;12.77;9.30;;;;;;;;;;746585;188;615612;-85
2022/02/14 12:20:59;;;;;;;10.67;8.40;;;;;;;;;;744216;187;626404;-88
2022/02/14 12:23:27;;;;;;;13.13;8.40;;;;;;;;;;742193;188;633760;-88
2022/02/14 12:25:52;;;;;;;11.13;8.07;;;;;;;;;;746711;188;647693;-87
2022/02/14 12:28:18;;;;;;;10.60;7.70;;;;;;;;;;743189;188;629372;-88
2022/02/14 12:30:44;;;;;;;12.03;8.03;;;;;;;;;;744239;188;624962;-88
2022/02/14 12:33:11;;;;;;;12.23;8.00;;;;;;;;;;748873;188;668403;-85
2022/02/14 12:35:36;;;;;;;12.20;7.90;;;;;;;;;;735740;189;630848;-87
2022/02/14 12:38:02;;;;;;;11.20;8.13;;;;;;;;;;742747;188;641639;-86
2022/02/14 12:40:34;;;;;;;17.03;9.70;;;;;;;;;;743023;188;631534;-89
2022/02/14 12:43:00;;;;;;;15.80;8.43;;;;;;;;;;745428;188;672873;-89
2022/02/14 12:45:25;;;;;;;13.93;9.23;;;;;;;;;;743321;187;623600;-88
2022/02/14 12:47:51;;;;;;;12.50;8.50;;;;;;;;;;741037;188;655400;-89
2022/02/14 12:50:17;;;;;;;13.20;8.87;;;;;;;;;;747199;188;645158;-89
2022/02/14 12:52:43;;;;;;;13.90;8.73;;;;;;;;;;741597;188;631483;-89
2022/02/14 12:55:09;;;;;;;11.67;7.93;;;;;;;;;;741724;188;637013;-89
2022/02/14 12:57:35;;;;;;;11.53;8.50;;;;;;;;;;739208;188;640872;-88
2022/02/14 13:00:01;;;;;;;10.33;8.07;;;;;;;;;;744519;189;631018;-87
2022/02/14 13:02:27;;;;;;;11.80;6.47;;;;;;;;;;733875;188;1597733;-89
2022/02/14 13:04:52;;;;;;;10.23;7.20;;;;;;;;;;737956;189;626088;-88
2022/02/14 13:07:18;;;;;;;12.60;7.53;;;;;;;;;;747218;188;619520;-89
2022/02/14 13:09:44;;;;;;;11.80;6.97;;;;;;;;;;742085;187;881338;-88
2022/02/14 13:12:11;;;;;;;22.93;7.50;;;;;;;;;;744684;188;621727;-88
2022/02/14 13:14:42;;;;;;;8.60;6.40;;;;;;;;;;750568;187;657178;-88
2022/02/14 13:17:08;;;;;;;8.73;6.27;;;;;;;;;;753967;187;628108;-89
2022/02/14 13:19:33;;;;;;;9.93;6.53;;;;;;;;;;765760;178;624622;-89
2022/02/14 13:21:59;;;;;;;11.53;6.37;;;;;;;;;;767534;179;838637;-89
2022/02/14 13:24:26;;;;;;;13.83;6.10;;;;;;;;;;769916;181;632598;-89
2022/02/14 13:26:57;;;;;;;9.77;6.40;;;;;;;;;;757839;185;645779;-87
2022/02/14 13:29:27;;;;;;;14.17;6.03;;;;;;;;;;760367;184;631443;-90
2022/02/14 13:31:53;;;;;;;8.40;6.40;;;;;;;;;;755217;184;655909;-87
2022/02/14 13:34:19;;;;;;;8.50;5.30;;;;;;;;;;765850;184;635523;-87
2022/02/14 13:36:49;;;;;;;8.10;6.77;;;;;;;;;;763436;185;635861;-89
2022/02/14 13:39:15;;;;;;;8.80;5.93;;;;;;;;;;753136;184;620284;-89
2022/02/14 13:41:41;;;;;;;8.73;6.17;;;;;;;;;;763366;184;637050;-87
2022/02/14 13:44:09;;;;;;;11.43;6.30;;;;;;;;;;759734;184;668905;-89
2022/02/14 13:46:35;;;;;;;8.77;6.10;;;;;;;;;;759251;185;622528;-89
2022/02/14 13:49:01;;;;;;;7.13;4.60;;;;;;;;;;757508;184;630965;-89
2022/02/14 13:51:27;;;;;;;7.97;5.43;;;;;;;;;;762318;180;628238;-88
2022/02/14 13:53:54;;;;;;;9.63;5.20;;;;;;;;;;759720;183;628538;-89
2022/02/14 13:56:20;;;;;;;7.47;5.73;;;;;;;;;;756791;183;625401;-89
2022/02/14 13:58:46;;;;;;;8.63;4.53;;;;;;;;;;752165;185;630461;-90
2022/02/14 14:01:19;;;;;;;12.60;5.70;;;;;;;;;;747859;183;627562;-89
2022/02/14 14:03:44;;;;;;;8.80;6.50;;;;;;;;;;749333;185;636975;-91
2022/02/14 14:06:10;;;;;;;9.10;5.80;;;;;;;;;;752748;185;645296;-85
2022/02/14 14:08:36;;;;;;;10.70;6.00;;;;;;;;;;749182;184;644354;-86
2022/02/14 14:11:02;;;;;;;13.47;5.90;;;;;;;;;;754183;182;619351;-88
2022/02/14 14:13:33;;;;;;;9.53;6.57;;;;;;;;;;750876;186;637125;-88
2022/02/14 14:16:00;;;;;;;8.53;5.70;;;;;;;;;;756779;185;624457;-87
2022/02/14 14:18:26;;;;;;;10.50;6.53;;;;;;;;;;754441;184;637642;-89
2022/02/14 14:20:51;;;;;;;11.17;8.17;;;;;;;;;;756839;183;623206;-90
2022/02/14 14:23:17;;;;;;;9.00;6.20;;;;;;;;;;757518;183;638024;-88
2022/02/14 14:25:44;;;;;;;10.87;7.03;;;;;;;;;;763439;184;624296;-90
2022/02/14 14:28:09;;;;;;;10.80;6.93;;;;;;;;;;761812;184;625478;-89
2022/02/14 14:30:35;;;;;;;9.45;7.00;;;;;;;;;;759344;184;630920;-90
2022/02/14 14:33:01;;;;;;;13.57;7.60;;;;;;;;;;763520;184;626832;-90
2022/02/14 14:35:27;;;;;;;12.50;7.93;;;;;;;;;;751481;183;627014;-87
2022/02/14 14:37:52;;;;;;;14.20;7.53;;;;;;;;;;747818;185;662723;-89
2022/02/14 14:40:18;;;;;;;9.40;6.70;;;;;;;;;;737991;185;646231;-88
2022/02/14 14:42:44;;;;;;;11.67;7.43;;;;;;;;;;729830;190;622260;-88
2022/02/14 14:45:10;;;;;;;14.90;8.80;;;;;;;;;;731100;190;666913;-89
2022/02/14 14:47:37;;;;;;;11.90;8.67;;;;;;;;;;739232;190;633474;-88
2022/02/14 14:50:02;;;;;;;14.90;9.50;;;;;;;;;;736038;190;671797;-86
2022/02/14 14:52:28;;;;;;;11.73;8.30;;;;;;;;;;731259;190;632485;-88
2022/02/14 14:54:53;;;;;;;10.83;8.80;;;;;;;;;;733097;190;650210;-86
2022/02/14 14:57:24;;;;;;;12.10;9.33;;;;;;;;;;730493;190;663156;-89
2022/02/14 14:59:46;;;;;;;13.00;8.63;;;;;;;;;;728910;190;643683;-86
2022/02/14 15:02:12;;;;;;;15.80;10.10;;;;;;;;;;751644;182;634796;-86
2022/02/14 15:04:38;;;;;;;13.77;9.90;;;;;;;;;;752166;187;659326;-86
2022/02/14 15:07:04;;;;;;;18.63;11.10;;;;;;;;;;744892;187;637158;-86
2022/02/14 15:09:29;;;;;;;15.93;9.70;;;;;;;;;;748301;184;660731;-85
2022/02/14 15:11:57;;;;;;;15.13;9.90;;;;;;;;;;755786;184;621577;-86
2022/02/14 15:14:23;;;;;;;17.53;10.40;;;;;;;;;;749494;183;623954;-86
2022/02/14 15:16:48;;;;;;;20.50;12.43;;;;;;;;;;752183;178;676098;-86
2022/02/14 15:19:14;;;;;;;15.80;10.33;;;;;;;;;;752321;185;640759;-86
2022/02/14 15:21:41;;;;;;;18.37;11.93;;;;;;;;;;753632;186;627840;-87
2022/02/14 15:24:06;;;;;;;16.70;11.90;;;;;;;;;;747674;185;614506;-86
2022/02/14 15:26:31;;;;;;;19.50;13.00;;;;;;;;;;752991;186;630228;-86
2022/02/14 15:28:57;;;;;;;19.47;12.07;;;;;;;;;;752749;187;633744;-86
2022/02/14 15:31:23;;;;;;;24.33;14.57;;;;;;;;;;750339;187;653031;-87